logo
Rechercher aéroport 
image banner adimage banner adimage banner ad
image banner ad

CSK4 - Mansonville

Situé à , Canada

ICAO - CSK4, IATA -

Données fournies par Airmate  

Information générale

Coordonnées: N45°1'35" W72°24'7"
Élévation : 575 feet MSL.
Variation magnétique : -16° East
Voir autres Aéroports à Quebec

Données opérationnelles

Special qualification required
Heure actuelle UTC:
Heure actuelle locale:
Météo à : KEFK - Northeast Kingdom Intl ( 21 km )
METAR: KEFK 170715Z AUTO 00000KT 10SM CLR M01/M03 A3024 RMK AO2 T10101028
TAF: KEFK 170524Z 1706/1806 VRB03KT P6SM SKC
Voir NOTAMs / SUP AIP / TFR affectant cet aéroport [VIEW]
Fréquences de communication: [VIEW]

Pistes:

Identifiant RWYQFULongueur (ft)Largeur (ft)SurfaceLDA (ft)
09280050ASPH
27280050ASPH

Coordonnées de l'aéroport

Adresse: Canada

Vue satellite de CSK4